createdAt,value
2019-03-03T00:00:28.685Z,4.36
2019-03-03T00:03:01.975Z,4.58
2019-03-03T00:05:35.646Z,4.35
2019-03-03T00:08:09.294Z,4.15
2019-03-03T00:10:42.664Z,4.14
2019-03-03T00:13:16.087Z,4.17
2019-03-03T00:15:49.435Z,4.52
2019-03-03T00:18:23.125Z,5.69
2019-03-03T00:20:56.371Z,5.69
2019-03-03T00:23:29.670Z,5.55
2019-03-03T00:26:05.784Z,5.23
2019-03-03T00:28:39.040Z,5.18
2019-03-03T00:31:14.212Z,5.31
2019-03-03T00:33:48.081Z,5.80
2019-03-03T00:36:21.560Z,5.68
2019-03-03T00:38:54.951Z,5.73
2019-03-03T00:41:28.329Z,6.03
2019-03-03T00:44:04.023Z,5.98
2019-03-03T00:46:38.877Z,5.96
2019-03-03T00:49:12.398Z,6.03
2019-03-03T00:51:47.453Z,6.00
2019-03-03T00:54:21.726Z,6.26
2019-03-03T00:56:58.740Z,6.66
2019-03-03T00:59:32.529Z,6.46
2019-03-03T01:02:06.819Z,6.81
2019-03-03T01:04:40.352Z,6.75
2019-03-03T01:07:15.828Z,6.68
2019-03-03T01:09:50.007Z,6.90
2019-03-03T01:12:24.163Z,7.21
2019-03-03T01:14:57.792Z,7.11
2019-03-03T01:17:31.463Z,7.39
2019-03-03T01:20:05.554Z,7.59
2019-03-03T01:22:39.166Z,8.08
2019-03-03T01:25:12.944Z,8.29
2019-03-03T01:27:46.529Z,8.69
2019-03-03T01:30:21.932Z,8.69
2019-03-03T01:32:58.440Z,8.03
2019-03-03T01:35:33.087Z,8.48
2019-03-03T01:38:07.219Z,8.81
2019-03-03T01:40:43.835Z,8.81
2019-03-03T01:43:17.130Z,8.57
2019-03-03T01:45:52.118Z,9.03
2019-03-03T01:48:25.690Z,8.93
2019-03-03T01:51:02.029Z,8.13
2019-03-03T01:53:35.395Z,8.69
2019-03-03T01:56:10.533Z,9.07
2019-03-03T01:58:44.104Z,9.23
2019-03-03T02:01:17.549Z,9.46
2019-03-03T02:03:51.482Z,8.72
2019-03-03T02:06:26.590Z,9.25
2019-03-03T02:09:00.433Z,9.48
2019-03-03T02:11:35.904Z,9.18
2019-03-03T02:14:12.375Z,9.04
2019-03-03T02:16:46.180Z,9.16
2019-03-03T02:19:19.826Z,9.36
2019-03-03T02:27:31.246Z,10.11
2019-03-03T02:30:06.916Z,10.37
2019-03-03T02:32:41.171Z,10.40
2019-03-03T02:35:15.111Z,10.47
2019-03-03T02:37:51.956Z,10.27
2019-03-03T02:40:26.632Z,10.39
2019-03-03T02:48:42.639Z,10.61
2019-03-03T02:51:20.657Z,10.60
2019-03-03T02:53:55.744Z,10.50
2019-03-03T02:56:30.665Z,10.59
2019-03-03T02:59:07.694Z,10.57
2019-03-03T03:01:43.002Z,10.53
2019-03-03T03:04:18.116Z,11.03
2019-03-03T03:06:53.392Z,11.07
2019-03-03T03:09:27.533Z,11.18
2019-03-03T03:12:00.980Z,10.81
2019-03-03T03:14:35.880Z,10.92
2019-03-03T03:17:10.280Z,10.72
2019-03-03T03:19:44.437Z,11.02
2019-03-03T03:22:17.946Z,11.08
2019-03-03T03:24:52.564Z,11.32
2019-03-03T03:27:26.451Z,11.14
2019-03-03T03:29:59.743Z,11.10
2019-03-03T03:32:34.121Z,11.27
2019-03-03T03:35:09.141Z,11.30
2019-03-03T03:37:42.870Z,11.43
2019-03-03T03:40:16.462Z,11.33
2019-03-03T03:42:50.351Z,11.66
2019-03-03T03:45:24.039Z,11.63
2019-03-03T03:47:57.644Z,11.82
2019-03-03T03:50:31.206Z,12.00
2019-03-03T03:53:05.034Z,12.26
2019-03-03T03:55:40.994Z,12.54
2019-03-03T03:58:14.926Z,12.57
2019-03-03T04:00:48.183Z,12.73
2019-03-03T04:03:24.014Z,12.38
2019-03-03T04:05:58.350Z,12.29
2019-03-03T04:08:31.718Z,12.23
2019-03-03T04:11:05.194Z,12.04
2019-03-03T04:13:40.672Z,11.87
2019-03-03T04:16:14.321Z,11.89
2019-03-03T04:18:47.978Z,11.83
2019-03-03T04:21:21.984Z,11.77
2019-03-03T04:23:55.689Z,12.12
2019-03-03T04:26:30.059Z,11.97
2019-03-03T04:29:04.295Z,11.56
2019-03-03T04:31:38.059Z,11.96
2019-03-03T04:34:11.722Z,11.89
2019-03-03T04:36:45.548Z,11.66
2019-03-03T04:39:20.687Z,11.40
2019-03-03T04:41:55.769Z,11.52
2019-03-03T04:44:33.943Z,11.63
2019-03-03T04:47:07.245Z,11.97
2019-03-03T04:49:41.289Z,12.21
2019-03-03T04:52:17.380Z,12.18
2019-03-03T04:54:51.803Z,12.21
2019-03-03T04:57:26.455Z,12.21
2019-03-03T05:00:01.002Z,12.28
2019-03-03T05:02:34.889Z,11.97
2019-03-03T05:05:12.917Z,12.17
2019-03-03T05:07:46.677Z,11.77
2019-03-03T05:10:21.452Z,11.92
2019-03-03T05:12:55.634Z,12.30
2019-03-03T05:15:29.975Z,12.52
2019-03-03T05:18:06.505Z,12.47
2019-03-03T05:20:42.796Z,12.61
2019-03-03T05:23:17.497Z,12.61
2019-03-03T05:25:52.227Z,12.54
2019-03-03T05:28:26.877Z,12.53
2019-03-03T05:31:08.668Z,12.65
2019-03-03T05:33:42.941Z,12.78
2019-03-03T05:36:17.245Z,12.61
2019-03-03T05:38:53.378Z,12.74
2019-03-03T05:41:29.112Z,12.42
2019-03-03T05:44:03.194Z,12.73
2019-03-03T05:46:37.505Z,12.68
2019-03-03T05:49:11.215Z,12.81
2019-03-03T05:51:45.216Z,12.93
2019-03-03T05:54:19.870Z,12.78
2019-03-03T05:56:55.659Z,12.81
2019-03-03T05:59:29.675Z,12.95
2019-03-03T06:02:04.653Z,12.92
2019-03-03T06:04:38.963Z,12.95
2019-03-03T06:07:15.653Z,13.01
2019-03-03T06:09:51.598Z,12.61
2019-03-03T06:12:27.776Z,12.94
2019-03-03T06:15:03.777Z,12.97
2019-03-03T06:17:38.703Z,12.92
2019-03-03T06:20:14.898Z,12.92
2019-03-03T06:22:49.778Z,13.03
2019-03-03T06:25:25.461Z,12.93
2019-03-03T06:28:02.438Z,13.13
2019-03-03T06:30:37.731Z,12.95
2019-03-03T06:33:12.986Z,13.04
2019-03-03T06:35:46.651Z,12.78
2019-03-03T06:38:21.032Z,12.95
2019-03-03T06:40:55.389Z,12.94
2019-03-03T06:43:29.703Z,12.92
2019-03-03T06:46:04.117Z,12.87
2019-03-03T06:48:40.592Z,12.86
2019-03-03T06:51:17.209Z,13.08
2019-03-03T06:53:53.698Z,12.98
2019-03-03T06:56:30.324Z,12.73
2019-03-03T06:59:04.788Z,12.50
2019-03-03T07:01:40.199Z,12.61
2019-03-03T07:04:14.274Z,12.80
2019-03-03T07:06:48.184Z,12.78
2019-03-03T07:09:22.293Z,12.74
2019-03-03T07:11:55.844Z,12.79
2019-03-03T07:14:29.252Z,12.73
2019-03-03T07:17:02.665Z,12.68
2019-03-03T07:19:37.549Z,12.74
2019-03-03T07:22:12.703Z,12.80
2019-03-03T07:24:46.230Z,12.75
2019-03-03T07:27:19.659Z,12.77
2019-03-03T07:29:53.309Z,12.81
2019-03-03T07:32:27.068Z,12.72
2019-03-03T07:35:00.979Z,12.51
2019-03-03T07:37:34.339Z,12.54
2019-03-03T07:40:10.332Z,12.51
2019-03-03T07:42:44.811Z,12.51
2019-03-03T07:45:19.524Z,12.45
2019-03-03T07:47:56.327Z,12.33
2019-03-03T07:50:30.158Z,12.44
2019-03-03T07:53:04.701Z,12.38
2019-03-03T07:55:41.488Z,12.35
2019-03-03T07:58:17.272Z,12.25
2019-03-03T08:00:51.343Z,12.20
2019-03-03T08:03:25.736Z,12.12
2019-03-03T08:05:59.728Z,12.02
2019-03-03T08:08:36.880Z,11.98
2019-03-03T08:11:13.145Z,12.06
2019-03-03T08:13:55.803Z,11.99
2019-03-03T08:16:30.010Z,11.92
2019-03-03T08:19:11.622Z,11.86
2019-03-03T08:21:49.241Z,11.80
2019-03-03T08:24:27.418Z,11.76
2019-03-03T08:27:00.207Z,11.72
2019-03-03T08:29:36.136Z,11.67
2019-03-03T08:32:10.471Z,11.59
2019-03-03T08:34:46.438Z,11.51
2019-03-03T08:37:20.995Z,11.45
2019-03-03T08:39:56.181Z,11.38
2019-03-03T08:42:32.881Z,11.37
2019-03-03T08:45:10.006Z,11.14
2019-03-03T08:47:53.035Z,11.10
2019-03-03T08:50:20.041Z,11.13
2019-03-03T08:52:53.913Z,11.14
2019-03-03T08:55:28.207Z,11.06
2019-03-03T08:58:03.370Z,10.77
2019-03-03T09:00:39.192Z,10.70
2019-03-03T09:03:12.664Z,10.65
2019-03-03T09:05:47.459Z,10.80
2019-03-03T09:08:21.007Z,10.70
2019-03-03T09:10:57.254Z,10.53
2019-03-03T09:13:30.897Z,10.24
2019-03-03T09:16:04.363Z,10.10
2019-03-03T09:18:37.875Z,9.94
2019-03-03T09:21:13.109Z,10.20
2019-03-03T09:23:47.526Z,10.19
2019-03-03T09:26:21.870Z,9.80
2019-03-03T09:28:56.050Z,9.36
2019-03-03T09:31:30.522Z,9.72
2019-03-03T09:34:04.487Z,9.60
2019-03-03T09:36:38.065Z,9.34
2019-03-03T09:39:11.824Z,9.17
2019-03-03T09:41:46.971Z,9.07
2019-03-03T09:44:20.738Z,8.82
2019-03-03T09:46:54.499Z,8.60
2019-03-03T09:49:27.999Z,8.55
2019-03-03T09:52:04.132Z,8.28
2019-03-03T09:54:37.988Z,8.39
2019-03-03T09:57:12.362Z,8.27
2019-03-03T09:59:46.517Z,8.08
2019-03-03T10:02:20.640Z,7.98
2019-03-03T10:04:54.176Z,7.73
2019-03-03T10:07:28.283Z,7.88
2019-03-03T10:10:03.472Z,7.73
2019-03-03T10:12:37.374Z,7.53
2019-03-03T10:15:14.236Z,7.49
2019-03-03T10:17:48.907Z,7.29
2019-03-03T10:20:23.508Z,7.19
2019-03-03T10:22:59.399Z,7.05
2019-03-03T10:25:34.862Z,6.94
2019-03-03T10:28:09.076Z,6.75
2019-03-03T10:30:45.334Z,6.79
2019-03-03T10:33:19.497Z,6.79
2019-03-03T10:35:54.303Z,6.55
2019-03-03T10:38:36.037Z,6.58
2019-03-03T10:41:08.977Z,6.54
2019-03-03T10:43:43.208Z,6.41
2019-03-03T10:46:16.898Z,6.36
2019-03-03T10:48:50.363Z,6.29
2019-03-03T10:51:24.357Z,6.41
2019-03-03T10:53:59.678Z,6.50
2019-03-03T10:56:36.854Z,6.26
2019-03-03T10:59:11.333Z,6.18
2019-03-03T11:01:45.317Z,6.35
2019-03-03T11:04:21.113Z,6.60
2019-03-03T11:06:59.148Z,7.03
2019-03-03T11:09:40.006Z,7.12
2019-03-03T11:12:15.078Z,6.89
2019-03-03T11:14:51.353Z,6.35
2019-03-03T11:17:26.090Z,6.35
2019-03-03T11:20:04.292Z,6.27
2019-03-03T11:22:38.832Z,6.14
2019-03-03T11:25:14.989Z,6.06
2019-03-03T11:27:50.577Z,5.99
2019-03-03T11:30:27.181Z,5.99
2019-03-03T11:33:03.456Z,5.87
2019-03-03T11:35:37.709Z,5.86
2019-03-03T11:38:13.954Z,5.74
2019-03-03T11:40:48.453Z,5.58
2019-03-03T11:43:23.727Z,5.58
2019-03-03T11:45:59.609Z,5.49
2019-03-03T11:48:35.692Z,5.53
2019-03-03T11:51:10.295Z,5.42
2019-03-03T11:53:49.863Z,5.34
2019-03-03T11:56:24.460Z,5.38
2019-03-03T11:58:58.327Z,5.18
2019-03-03T12:01:32.767Z,5.22
2019-03-03T12:04:07.198Z,5.37
2019-03-03T12:06:41.741Z,5.68
2019-03-03T12:09:16.804Z,5.51
2019-03-03T12:11:53.816Z,5.51
2019-03-03T12:14:27.323Z,5.68
2019-03-03T12:17:03.511Z,5.86
2019-03-03T12:19:39.655Z,5.84
2019-03-03T12:22:14.451Z,5.99
2019-03-03T12:27:38.852Z,6.36
2019-03-03T12:30:19.840Z,5.88
2019-03-03T12:32:58.240Z,5.77
2019-03-03T12:35:33.060Z,5.82
2019-03-03T12:38:08.090Z,5.85
2019-03-03T12:40:43.359Z,5.94
2019-03-03T12:43:17.910Z,5.92
2019-03-03T12:45:54.653Z,5.91
2019-03-03T12:48:30.204Z,5.65
2019-03-03T12:51:04.762Z,5.69
2019-03-03T12:53:41.247Z,5.54
2019-03-03T12:56:15.899Z,5.33
2019-03-03T12:58:52.628Z,5.33
2019-03-03T13:01:30.721Z,5.53
2019-03-03T13:04:08.081Z,5.24
2019-03-03T13:06:43.108Z,5.10
2019-03-03T13:09:19.285Z,4.99
2019-03-03T13:11:54.159Z,5.43
2019-03-03T13:14:30.659Z,5.45
2019-03-03T13:17:05.700Z,5.67
2019-03-03T13:19:40.488Z,5.77
2019-03-03T13:22:16.318Z,5.70
2019-03-03T13:24:52.948Z,5.90
2019-03-03T13:27:28.163Z,5.86
2019-03-03T13:30:02.957Z,5.99
2019-03-03T13:32:38.021Z,5.91
2019-03-03T13:35:16.726Z,5.89
2019-03-03T13:37:53.735Z,5.96
2019-03-03T13:40:29.280Z,5.96
2019-03-03T13:43:04.814Z,5.77
2019-03-03T13:45:39.851Z,5.79
2019-03-03T13:48:15.174Z,5.88
2019-03-03T13:50:49.935Z,5.76
2019-03-03T13:53:24.309Z,5.80
2019-03-03T13:55:58.582Z,5.73
2019-03-03T13:58:33.203Z,5.68
2019-03-03T14:01:07.937Z,5.61
2019-03-03T14:03:44.273Z,5.69
2019-03-03T14:06:18.858Z,5.36
2019-03-03T14:08:54.558Z,5.27
2019-03-03T14:11:35.443Z,5.34
2019-03-03T14:14:10.946Z,5.16
2019-03-03T14:16:47.755Z,4.92
2019-03-03T14:19:23.210Z,4.82
2019-03-03T14:22:00.183Z,4.84
2019-03-03T14:24:36.851Z,4.84
2019-03-03T14:27:13.268Z,4.82
2019-03-03T14:29:47.917Z,4.80
2019-03-03T14:32:22.262Z,4.62
2019-03-03T14:34:56.738Z,4.56
2019-03-03T14:37:31.345Z,4.60
2019-03-03T14:40:07.366Z,4.71
2019-03-03T14:42:41.557Z,4.61
2019-03-03T14:45:18.162Z,4.48
2019-03-03T14:47:52.702Z,4.58
2019-03-03T14:50:28.106Z,4.53
2019-03-03T14:53:02.582Z,4.35
2019-03-03T14:55:37.102Z,4.39
2019-03-03T14:58:11.999Z,4.33
2019-03-03T15:00:46.484Z,4.27
2019-03-03T15:03:20.926Z,4.16
2019-03-03T15:05:56.288Z,4.16
2019-03-03T15:08:30.584Z,4.13
2019-03-03T15:11:10.097Z,4.10
2019-03-03T15:13:44.089Z,3.98
2019-03-03T15:16:20.704Z,3.98
2019-03-03T15:18:54.555Z,3.95
2019-03-03T15:21:30.111Z,3.98
2019-03-03T15:24:03.964Z,3.92
2019-03-03T15:26:38.255Z,3.90
2019-03-03T15:29:12.916Z,3.74
2019-03-03T15:31:46.952Z,3.72
2019-03-03T15:34:21.096Z,3.79
2019-03-03T15:36:56.604Z,3.81
2019-03-03T15:39:32.670Z,3.83
2019-03-03T15:42:10.992Z,3.87
2019-03-03T15:44:43.686Z,3.85
2019-03-03T15:47:19.128Z,3.80
2019-03-03T15:49:52.968Z,3.70
2019-03-03T15:52:27.040Z,3.50
2019-03-03T15:55:01.248Z,3.58
2019-03-03T15:57:35.062Z,3.57
2019-03-03T16:00:11.356Z,3.77
2019-03-03T16:02:45.142Z,3.83
2019-03-03T16:05:19.945Z,4.05
2019-03-03T16:07:54.728Z,3.95
2019-03-03T16:10:29.734Z,3.99
2019-03-03T16:13:04.010Z,4.01
2019-03-03T16:15:37.772Z,4.11
2019-03-03T16:18:11.731Z,4.02
2019-03-03T16:20:46.020Z,3.92
2019-03-03T16:23:21.431Z,3.85
2019-03-03T16:25:55.210Z,3.81
2019-03-03T16:28:35.397Z,3.74
2019-03-03T16:31:09.592Z,3.65
2019-03-03T16:33:43.399Z,3.64
2019-03-03T16:36:17.174Z,3.56
2019-03-03T16:38:51.671Z,3.57
2019-03-03T16:41:27.063Z,3.53
2019-03-03T16:44:03.322Z,3.50
2019-03-03T16:46:39.263Z,3.53
2019-03-03T16:49:18.325Z,3.50
2019-03-03T16:51:53.788Z,3.55
2019-03-03T16:54:27.870Z,3.54
2019-03-03T16:57:02.125Z,3.50
2019-03-03T16:59:36.237Z,3.63
2019-03-03T17:02:10.335Z,3.64
2019-03-03T17:04:44.508Z,3.59
2019-03-03T17:07:18.318Z,3.53
2019-03-03T17:09:52.269Z,3.63
2019-03-03T17:12:26.237Z,3.66
2019-03-03T17:15:00.209Z,3.74
2019-03-03T17:17:34.694Z,3.72
2019-03-03T17:20:10.667Z,3.67
2019-03-03T17:22:44.291Z,3.69
2019-03-03T17:25:29.393Z,3.73
2019-03-03T17:28:03.306Z,3.70
2019-03-03T17:30:38.379Z,3.73
2019-03-03T17:33:11.884Z,3.81
2019-03-03T17:35:45.438Z,3.77
2019-03-03T17:38:18.812Z,3.70
2019-03-03T17:40:55.264Z,3.70
2019-03-03T17:43:29.193Z,3.52
2019-03-03T17:46:02.579Z,3.57
2019-03-03T17:48:36.332Z,3.51
2019-03-03T17:51:09.938Z,3.73
2019-03-03T17:53:43.561Z,3.69
2019-03-03T17:56:16.857Z,3.46
2019-03-03T17:58:51.395Z,3.23
2019-03-03T18:01:26.548Z,3.15
2019-03-03T18:03:59.980Z,3.04
2019-03-03T18:06:38.813Z,3.09
2019-03-03T18:09:09.128Z,2.98
2019-03-03T18:11:42.551Z,3.15
2019-03-03T18:14:15.803Z,3.25
2019-03-03T18:16:49.215Z,3.28
2019-03-03T18:19:22.435Z,3.09
2019-03-03T18:21:55.918Z,3.08
2019-03-03T18:24:30.540Z,3.14
2019-03-03T18:27:05.622Z,2.98
2019-03-03T18:29:40.264Z,2.90
2019-03-03T18:32:14.416Z,3.01
2019-03-03T18:34:47.740Z,3.08
2019-03-03T18:37:20.998Z,3.05
2019-03-03T18:39:54.349Z,2.97
2019-03-03T18:42:27.639Z,2.96
2019-03-03T18:45:00.854Z,2.92
2019-03-03T18:47:34.257Z,2.92
2019-03-03T18:50:12.083Z,2.96
2019-03-03T18:52:45.418Z,3.07
2019-03-03T18:55:18.825Z,3.05
2019-03-03T18:57:52.368Z,2.93
2019-03-03T19:00:27.942Z,2.72
2019-03-03T19:03:01.477Z,2.74
2019-03-03T19:05:35.579Z,2.62
2019-03-03T19:08:09.070Z,2.53
2019-03-03T19:10:43.214Z,2.53
2019-03-03T19:13:18.486Z,2.56
2019-03-03T19:15:51.865Z,2.56
2019-03-03T19:18:25.163Z,2.52
2019-03-03T19:20:58.436Z,2.49
2019-03-03T19:23:31.704Z,2.51
2019-03-03T19:26:05.696Z,2.58
2019-03-03T19:28:40.751Z,2.67
2019-03-03T19:31:14.084Z,2.71
2019-03-03T19:33:53.277Z,2.77
2019-03-03T19:36:26.741Z,2.51
2019-03-03T19:39:06.912Z,2.48
2019-03-03T19:41:40.382Z,2.43
2019-03-03T19:44:13.653Z,2.38
2019-03-03T19:46:46.888Z,2.31
2019-03-03T19:49:20.261Z,2.32
2019-03-03T19:51:53.716Z,2.35
2019-03-03T19:54:27.066Z,2.46
2019-03-03T19:57:00.447Z,2.66
2019-03-03T19:59:33.954Z,2.62
2019-03-03T20:02:07.328Z,2.46
2019-03-03T20:04:40.669Z,2.43
2019-03-03T20:07:14.295Z,2.40
2019-03-03T20:09:47.713Z,2.43
2019-03-03T20:12:20.920Z,2.43
2019-03-03T20:14:54.227Z,2.47
2019-03-03T20:17:27.508Z,2.51
2019-03-03T20:20:01.044Z,2.44
2019-03-03T20:22:34.478Z,2.47
2019-03-03T20:25:09.409Z,2.39
2019-03-03T20:27:42.583Z,2.33
2019-03-03T20:30:18.738Z,2.35
2019-03-03T20:32:52.136Z,2.53
2019-03-03T20:35:27.220Z,2.64
2019-03-03T20:38:00.503Z,2.69
2019-03-03T20:40:34.034Z,2.83
2019-03-03T20:43:07.522Z,2.88
2019-03-03T20:45:40.845Z,2.87
2019-03-03T20:48:14.303Z,2.93
2019-03-03T20:50:47.511Z,2.98
2019-03-03T20:53:21.099Z,2.90
2019-03-03T20:55:54.609Z,2.90
2019-03-03T20:58:27.887Z,2.93
2019-03-03T21:04:03.725Z,2.97
2019-03-03T21:06:37.001Z,2.92
2019-03-03T21:09:13.219Z,2.88
2019-03-03T21:11:46.621Z,2.94
2019-03-03T21:14:19.834Z,2.84
2019-03-03T21:16:53.804Z,2.92
2019-03-03T21:19:27.306Z,2.90
2019-03-03T21:22:00.524Z,3.04
2019-03-03T21:24:33.783Z,2.98
2019-03-03T21:27:07.008Z,2.91
2019-03-03T21:29:40.277Z,2.77
2019-03-03T21:32:14.546Z,2.72
2019-03-03T21:34:47.807Z,2.56
2019-03-03T21:37:21.096Z,2.58
2019-03-03T21:39:54.375Z,2.58
2019-03-03T21:42:27.641Z,2.53
2019-03-03T21:45:01.005Z,2.52
2019-03-03T21:47:34.345Z,2.54
2019-03-03T21:50:09.659Z,2.43
2019-03-03T21:52:43.107Z,2.47
2019-03-03T21:55:17.619Z,2.46
2019-03-03T21:57:50.996Z,2.44
2019-03-03T22:00:43.786Z,2.60
2019-03-03T22:03:18.477Z,2.62
2019-03-03T22:05:51.852Z,2.56
2019-03-03T22:08:25.388Z,2.53
2019-03-03T22:10:59.638Z,2.35
2019-03-03T22:13:33.054Z,2.25
2019-03-03T22:16:06.565Z,2.25
2019-03-03T22:18:42.562Z,2.12
2019-03-03T22:21:16.321Z,2.04
2019-03-03T22:23:49.626Z,2.13
2019-03-03T22:26:24.325Z,2.00
2019-03-03T22:28:57.522Z,1.95
2019-03-03T22:31:30.851Z,1.97
2019-03-03T22:34:04.099Z,1.93
2019-03-03T22:36:37.493Z,1.88
2019-03-03T22:39:12.141Z,1.86
2019-03-03T22:41:46.975Z,2.03
2019-03-03T22:44:20.285Z,1.75
2019-03-03T22:46:54.542Z,1.73
2019-03-03T22:49:28.155Z,1.89
2019-03-03T22:52:01.338Z,1.94
2019-03-03T22:54:34.960Z,1.91
2019-03-03T22:57:08.417Z,1.93
2019-03-03T22:59:41.926Z,1.81
2019-03-03T23:02:16.590Z,2.07
2019-03-03T23:04:55.506Z,2.34
2019-03-03T23:07:43.779Z,2.34
2019-03-03T23:10:28.930Z,2.43
2019-03-03T23:13:05.319Z,2.52
2019-03-03T23:15:55.728Z,2.59
2019-03-03T23:19:02.295Z,2.63
2019-03-03T23:21:53.413Z,2.60
2019-03-03T23:24:55.890Z,2.73
2019-03-03T23:27:29.237Z,2.78
2019-03-03T23:30:02.479Z,2.76
2019-03-03T23:32:35.754Z,2.78
2019-03-03T23:35:10.668Z,2.74
2019-03-03T23:37:43.946Z,2.73
2019-03-03T23:40:17.287Z,2.78
2019-03-03T23:42:50.525Z,2.81
2019-03-03T23:45:24.051Z,2.83
2019-03-03T23:47:57.266Z,2.74
2019-03-03T23:50:32.154Z,2.75
2019-03-03T23:53:13.456Z,2.92
2019-03-03T23:55:50.501Z,3.01
2019-03-03T23:58:23.684Z,3.16
